createdAt,value
2022-12-04T00:01:09.559Z,19.00
2022-12-04T00:03:36.980Z,19.63
2022-12-04T00:06:07.740Z,19.47
2022-12-04T00:08:34.814Z,19.87
2022-12-04T00:11:02.991Z,19.43
2022-12-04T00:13:29.760Z,17.83
2022-12-04T00:15:56.474Z,17.87
2022-12-04T00:18:23.348Z,18.20
2022-12-04T00:20:50.041Z,19.10
2022-12-04T00:23:16.724Z,19.67
2022-12-04T00:25:48.463Z,18.17
2022-12-04T00:28:19.213Z,17.17
2022-12-04T00:30:46.464Z,18.40
2022-12-04T00:33:13.980Z,18.43
2022-12-04T00:35:40.935Z,17.40
2022-12-04T00:38:08.038Z,18.33
2022-12-04T00:40:34.760Z,18.40
2022-12-04T00:43:01.496Z,17.13
2022-12-04T00:45:28.251Z,16.17
2022-12-04T00:47:55.025Z,17.20
2022-12-04T00:50:22.034Z,16.83
2022-12-04T00:52:48.707Z,18.40
2022-12-04T00:55:15.475Z,17.67
2022-12-04T00:57:42.123Z,18.77
2022-12-04T01:00:09.239Z,18.57
2022-12-04T01:02:35.905Z,18.87
2022-12-04T01:05:02.833Z,18.13
2022-12-04T01:07:29.549Z,17.97
2022-12-04T01:09:56.996Z,19.90
2022-12-04T01:12:23.844Z,18.27
2022-12-04T01:14:50.670Z,17.87
2022-12-04T01:17:17.327Z,19.83
2022-12-04T01:19:44.013Z,19.47
2022-12-04T01:22:10.676Z,20.63
2022-12-04T01:24:37.327Z,18.80
2022-12-04T01:27:04.020Z,20.90
2022-12-04T01:29:30.721Z,21.77
2022-12-04T01:31:57.399Z,20.63
2022-12-04T01:34:25.200Z,20.97
2022-12-04T01:36:53.116Z,19.57
2022-12-04T01:39:19.907Z,20.70
2022-12-04T01:41:46.577Z,19.50
2022-12-04T01:44:17.841Z,20.53
2022-12-04T01:46:46.692Z,19.47
2022-12-04T01:49:18.973Z,20.27
2022-12-04T01:51:54.408Z,21.23
2022-12-04T01:54:28.561Z,20.50
2022-12-04T01:57:06.318Z,20.10
2022-12-04T01:59:38.306Z,19.07
2022-12-04T02:02:09.585Z,18.17
2022-12-04T02:04:37.177Z,17.80
2022-12-04T02:07:03.827Z,16.57
2022-12-04T02:09:31.479Z,17.40
2022-12-04T02:12:09.088Z,16.43
2022-12-04T02:14:52.236Z,15.90
2022-12-04T02:17:30.215Z,15.00
2022-12-04T02:20:10.191Z,15.87
2022-12-04T02:23:11.550Z,15.13
2022-12-04T02:26:15.898Z,14.20
2022-12-04T02:28:59.567Z,14.50
2022-12-04T02:31:33.624Z,14.97
2022-12-04T02:34:09.598Z,14.30
2022-12-04T02:36:44.719Z,14.20
2022-12-04T02:39:33.758Z,14.13
2022-12-04T02:42:18.843Z,12.77
2022-12-04T02:44:50.659Z,12.97
2022-12-04T02:47:22.099Z,12.73
2022-12-04T02:49:54.926Z,13.00
2022-12-04T02:52:35.119Z,13.63
2022-12-04T02:55:31.615Z,12.67
2022-12-04T02:58:05.095Z,12.27
2022-12-04T03:00:32.573Z,13.47
2022-12-04T03:03:11.005Z,12.90
2022-12-04T03:05:45.852Z,12.27
2022-12-04T03:08:21.350Z,12.80
2022-12-04T03:10:53.547Z,12.83
2022-12-04T03:13:31.320Z,11.33
2022-12-04T03:16:08.833Z,12.27
2022-12-04T03:18:46.628Z,12.37
2022-12-04T03:21:24.755Z,13.33
2022-12-04T03:23:59.571Z,12.10
2022-12-04T03:26:33.558Z,12.20
2022-12-04T03:29:15.464Z,12.63
2022-12-04T03:31:51.320Z,12.37
2022-12-04T03:34:36.225Z,11.30
2022-12-04T03:37:10.544Z,11.23
2022-12-04T03:40:03.088Z,11.57
2022-12-04T03:43:00.600Z,11.43
2022-12-04T03:45:35.562Z,11.60
2022-12-04T03:48:24.107Z,12.20
2022-12-04T03:51:07.427Z,11.43
2022-12-04T03:53:40.354Z,11.43
2022-12-04T03:56:15.240Z,12.53
2022-12-04T03:58:46.674Z,11.43
2022-12-04T04:01:15.207Z,10.73
2022-12-04T04:03:53.807Z,11.87
2022-12-04T04:06:34.171Z,11.53
2022-12-04T04:09:07.307Z,12.17
2022-12-04T04:12:00.579Z,11.93
2022-12-04T04:15:04.948Z,11.27
2022-12-04T04:17:53.803Z,10.87
2022-12-04T04:20:44.349Z,11.23
2022-12-04T04:23:36.454Z,12.23
2022-12-04T04:26:04.462Z,12.37
2022-12-04T04:28:40.183Z,12.17
2022-12-04T04:31:33.598Z,11.90
2022-12-04T04:34:24.905Z,10.77
2022-12-04T04:37:00.512Z,11.37
2022-12-04T04:39:48.772Z,11.57
2022-12-04T04:42:27.976Z,10.80
2022-12-04T04:45:06.398Z,12.13
2022-12-04T04:47:48.884Z,11.43
2022-12-04T04:50:17.985Z,9.63
2022-12-04T04:52:50.925Z,11.47
2022-12-04T04:55:19.344Z,11.40
2022-12-04T04:57:46.151Z,10.77
2022-12-04T05:00:15.824Z,12.13
2022-12-04T05:02:43.216Z,11.23
2022-12-04T05:05:11.950Z,12.00
2022-12-04T05:07:38.718Z,10.87
2022-12-04T05:10:06.461Z,12.10
2022-12-04T05:12:35.025Z,11.37
2022-12-04T05:15:01.831Z,12.07
2022-12-04T05:17:28.570Z,10.97
2022-12-04T05:19:56.570Z,11.60
2022-12-04T05:22:34.516Z,11.03
2022-12-04T05:25:01.609Z,11.77
2022-12-04T05:27:29.843Z,11.03
2022-12-04T05:30:00.913Z,12.10
2022-12-04T05:32:29.461Z,10.30
2022-12-04T05:34:57.054Z,11.63
2022-12-04T05:37:24.453Z,11.30
2022-12-04T05:39:51.174Z,11.37
2022-12-04T05:42:20.455Z,11.47
2022-12-04T05:44:48.915Z,10.50
2022-12-04T05:47:15.957Z,10.97
2022-12-04T05:49:42.607Z,10.53
2022-12-04T05:52:10.504Z,9.07
2022-12-04T05:54:37.303Z,9.90
2022-12-04T05:57:04.133Z,10.07
2022-12-04T05:59:30.916Z,9.73
2022-12-04T06:01:57.658Z,10.77
2022-12-04T06:04:25.360Z,10.03
2022-12-04T06:06:53.559Z,10.60
2022-12-04T06:09:20.226Z,10.50
2022-12-04T06:11:47.279Z,10.53
2022-12-04T06:14:15.792Z,9.83
2022-12-04T06:16:45.253Z,10.67
2022-12-04T06:19:15.869Z,10.27
2022-12-04T06:21:44.486Z,10.77
2022-12-04T06:24:17.402Z,10.93
2022-12-04T06:27:11.130Z,10.33
2022-12-04T06:29:31.629Z,10.33
2022-12-04T06:31:58.792Z,11.00
2022-12-04T06:34:28.226Z,11.23
2022-12-04T06:36:54.912Z,11.87
2022-12-04T06:39:21.752Z,10.97
2022-12-04T06:41:48.458Z,12.27
2022-12-04T06:44:16.230Z,11.70
2022-12-04T06:46:46.747Z,12.00
2022-12-04T06:49:14.393Z,11.67
2022-12-04T06:51:43.889Z,12.37
2022-12-04T06:54:10.855Z,11.07
2022-12-04T06:56:37.610Z,10.07
2022-12-04T06:59:05.309Z,11.50
2022-12-04T07:01:34.181Z,10.97
2022-12-04T07:04:03.657Z,11.47
2022-12-04T07:06:33.412Z,11.17
2022-12-04T07:09:11.467Z,11.10
2022-12-04T07:11:39.748Z,10.67
2022-12-04T07:14:06.836Z,11.33
2022-12-04T07:16:38.664Z,11.57
2022-12-04T07:19:13.071Z,10.93
2022-12-04T07:21:39.964Z,11.33
2022-12-04T07:24:07.164Z,11.90
2022-12-04T07:26:33.930Z,10.20
2022-12-04T07:29:00.706Z,11.17
2022-12-04T07:31:29.194Z,11.17
2022-12-04T07:33:56.590Z,10.87
2022-12-04T07:36:24.445Z,12.47
2022-12-04T07:38:51.901Z,11.67
2022-12-04T07:41:19.228Z,12.20
2022-12-04T07:43:46.243Z,11.70
2022-12-04T07:46:19.875Z,11.97
2022-12-04T07:48:46.674Z,11.30
2022-12-04T07:51:16.437Z,11.53
2022-12-04T07:53:43.735Z,10.93
2022-12-04T07:56:12.164Z,11.37
2022-12-04T07:58:39.867Z,11.07
2022-12-04T08:01:12.433Z,10.80
2022-12-04T08:03:45.447Z,10.80
2022-12-04T08:06:13.800Z,10.03
2022-12-04T08:08:40.596Z,10.93
2022-12-04T08:11:12.503Z,11.07
2022-12-04T08:13:39.255Z,11.43
2022-12-04T08:16:07.646Z,11.63
2022-12-04T08:18:34.828Z,11.33
2022-12-04T08:21:12.825Z,10.13
2022-12-04T08:23:41.081Z,10.60
2022-12-04T08:26:08.891Z,10.77
2022-12-04T08:28:36.312Z,10.37
2022-12-04T08:31:10.250Z,11.23
2022-12-04T08:33:37.072Z,11.83
2022-12-04T08:36:09.061Z,12.30
2022-12-04T08:38:36.042Z,13.47
2022-12-04T08:41:07.638Z,12.77
2022-12-04T08:43:34.952Z,12.30
2022-12-04T08:46:04.982Z,13.13
2022-12-04T08:48:34.770Z,11.47
2022-12-04T08:51:04.205Z,12.60
2022-12-04T08:53:31.876Z,13.83
2022-12-04T08:56:03.702Z,12.40
2022-12-04T08:58:30.653Z,12.10
2022-12-04T09:01:03.298Z,12.30
2022-12-04T09:03:31.170Z,13.53
2022-12-04T09:06:03.738Z,12.97
2022-12-04T09:08:31.609Z,13.13
2022-12-04T09:11:06.665Z,13.07
2022-12-04T09:13:34.574Z,13.37
2022-12-04T09:16:05.613Z,12.50
2022-12-04T09:18:33.051Z,14.67
2022-12-04T09:21:02.705Z,15.47
2022-12-04T09:23:29.591Z,15.83
2022-12-04T09:25:56.344Z,17.70
2022-12-04T09:28:23.095Z,15.43
2022-12-04T09:31:00.780Z,14.27
2022-12-04T09:33:28.026Z,14.77
2022-12-04T09:35:55.234Z,16.70
2022-12-04T09:38:22.020Z,16.03
2022-12-04T09:41:20.615Z,15.33
2022-12-04T09:43:57.877Z,15.30
2022-12-04T09:46:37.696Z,17.30
2022-12-04T09:49:14.008Z,15.63
2022-12-04T09:51:42.291Z,15.63
2022-12-04T09:54:18.076Z,14.17
2022-12-04T09:56:53.104Z,14.70
2022-12-04T09:59:23.383Z,14.73
2022-12-04T10:01:54.248Z,14.90
2022-12-04T10:04:21.142Z,15.17
2022-12-04T10:07:20.122Z,14.93
2022-12-04T10:10:19.196Z,14.97
2022-12-04T10:12:57.768Z,14.90
2022-12-04T10:15:28.457Z,16.90
2022-12-04T10:18:24.109Z,18.00
2022-12-04T10:21:09.739Z,14.73
2022-12-04T10:23:55.973Z,14.60
2022-12-04T10:26:32.150Z,15.10
2022-12-04T10:29:02.944Z,14.93
2022-12-04T10:31:31.945Z,16.20
2022-12-04T10:34:07.549Z,16.20
2022-12-04T10:36:35.234Z,14.97
2022-12-04T10:39:21.951Z,17.47
2022-12-04T10:42:01.069Z,15.90
2022-12-04T10:44:27.883Z,16.47
2022-12-04T10:47:00.343Z,15.37
2022-12-04T10:49:32.658Z,16.37
2022-12-04T10:51:59.540Z,16.40
2022-12-04T10:54:53.031Z,18.20
2022-12-04T10:57:19.744Z,16.47
2022-12-04T10:59:56.641Z,14.73
2022-12-04T11:02:29.832Z,16.00
2022-12-04T11:04:59.699Z,29.27
2022-12-04T11:07:29.301Z,19.53
2022-12-04T11:10:06.539Z,16.73
2022-12-04T11:12:33.734Z,16.90
2022-12-04T11:15:15.256Z,14.17
2022-12-04T11:17:41.960Z,14.77
2022-12-04T11:20:19.122Z,15.03
2022-12-04T11:22:56.882Z,13.47
2022-12-04T11:25:30.904Z,13.90
2022-12-04T11:28:01.413Z,13.33
2022-12-04T11:30:37.109Z,14.40
2022-12-04T11:33:07.262Z,13.70
2022-12-04T11:35:34.126Z,13.90
2022-12-04T11:38:16.173Z,15.17
2022-12-04T11:40:53.220Z,14.37
2022-12-04T11:43:21.216Z,14.23
2022-12-04T11:46:07.019Z,13.37
2022-12-04T11:48:43.821Z,11.73
2022-12-04T11:51:26.103Z,12.80
2022-12-04T11:54:25.329Z,13.30
2022-12-04T11:57:24.089Z,12.73
2022-12-04T12:00:12.693Z,12.33
2022-12-04T12:03:10.514Z,14.27
2022-12-04T12:05:49.849Z,14.73
2022-12-04T12:08:50.317Z,14.93
2022-12-04T12:11:36.007Z,14.47
2022-12-04T12:14:14.392Z,13.17
2022-12-04T12:16:59.178Z,14.53
2022-12-04T12:19:35.705Z,14.03
2022-12-04T12:22:26.617Z,14.77
2022-12-04T12:25:30.279Z,15.13
2022-12-04T12:28:00.120Z,13.30
2022-12-04T12:30:29.318Z,14.47
2022-12-04T12:33:15.054Z,14.77
2022-12-04T12:35:43.030Z,14.77
2022-12-04T12:38:33.269Z,15.23
2022-12-04T12:41:14.254Z,14.47
2022-12-04T12:43:43.913Z,13.57
2022-12-04T12:46:34.961Z,12.93
2022-12-04T12:49:16.625Z,13.67
2022-12-04T12:51:51.106Z,14.57
2022-12-04T12:54:32.867Z,14.57
2022-12-04T12:57:18.282Z,14.83
2022-12-04T12:59:57.077Z,15.37
2022-12-04T13:02:36.951Z,13.63
2022-12-04T13:05:10.393Z,16.77
2022-12-04T13:07:50.833Z,14.33
2022-12-04T13:10:25.225Z,13.23
2022-12-04T13:12:57.907Z,13.53
2022-12-04T13:15:33.635Z,12.87
2022-12-04T13:18:01.251Z,13.37
2022-12-04T13:20:39.156Z,13.03
2022-12-04T13:23:10.643Z,13.53
2022-12-04T13:25:43.099Z,13.73
2022-12-04T13:28:36.205Z,14.07
2022-12-04T13:31:29.320Z,13.93
2022-12-04T13:33:59.049Z,14.37
2022-12-04T13:36:31.517Z,14.97
2022-12-04T13:39:07.344Z,14.80
2022-12-04T13:41:37.445Z,15.03
2022-12-04T13:44:23.233Z,14.57
2022-12-04T13:47:08.486Z,15.00
2022-12-04T13:49:37.276Z,13.60
2022-12-04T13:52:07.021Z,13.67
2022-12-04T13:54:35.921Z,13.77
2022-12-04T13:57:21.952Z,14.53
2022-12-04T13:59:49.406Z,13.47
2022-12-04T14:02:28.618Z,15.47
2022-12-04T14:05:06.610Z,14.50
2022-12-04T14:07:57.601Z,15.23
2022-12-04T14:10:29.175Z,12.93
2022-12-04T14:13:12.842Z,14.77
2022-12-04T14:15:40.171Z,14.63
2022-12-04T14:18:21.748Z,18.07
2022-12-04T14:21:07.547Z,17.67
2022-12-04T14:23:38.059Z,15.83
2022-12-04T14:26:07.780Z,15.70
2022-12-04T14:28:41.710Z,15.00
2022-12-04T14:31:09.091Z,14.40
2022-12-04T14:34:03.108Z,14.37
2022-12-04T14:36:43.436Z,15.07
2022-12-04T14:39:25.669Z,14.47
2022-12-04T14:42:03.850Z,15.30
2022-12-04T14:44:31.922Z,15.10
2022-12-04T14:47:15.379Z,15.23
2022-12-04T14:50:04.375Z,16.03
2022-12-04T14:52:57.876Z,15.17
2022-12-04T14:55:43.358Z,15.00
2022-12-04T14:58:31.956Z,15.30
2022-12-04T15:01:22.663Z,16.20
2022-12-04T15:03:56.032Z,15.30
2022-12-04T15:06:31.510Z,14.87
2022-12-04T15:09:19.247Z,15.00
2022-12-04T15:12:13.284Z,14.13
2022-12-04T15:14:44.106Z,13.47
2022-12-04T15:17:12.279Z,14.13
2022-12-04T15:19:39.805Z,14.33
2022-12-04T15:22:22.552Z,14.00
2022-12-04T15:24:51.068Z,16.40
2022-12-04T15:27:21.070Z,13.40
2022-12-04T15:29:51.344Z,15.10
2022-12-04T15:32:21.697Z,15.50
2022-12-04T15:35:09.708Z,17.70
2022-12-04T15:37:36.864Z,16.27
2022-12-04T15:40:09.086Z,19.60
2022-12-04T15:42:35.719Z,18.43
2022-12-04T15:45:23.228Z,16.00
2022-12-04T15:47:53.736Z,16.03
2022-12-04T15:50:27.050Z,25.80
2022-12-04T15:52:59.320Z,17.13
2022-12-04T15:55:28.258Z,15.27
2022-12-04T15:58:06.291Z,17.00
2022-12-04T16:00:37.547Z,15.80
2022-12-04T16:03:26.804Z,14.47
2022-12-04T16:06:04.790Z,16.80
2022-12-04T16:08:33.983Z,19.47
2022-12-04T16:11:22.571Z,18.63
2022-12-04T16:14:01.803Z,21.03
2022-12-04T16:16:28.805Z,18.43
2022-12-04T16:18:55.714Z,18.17
2022-12-04T16:21:27.964Z,17.03
2022-12-04T16:23:54.591Z,17.30
2022-12-04T16:26:21.297Z,16.17
2022-12-04T16:28:47.966Z,15.83
2022-12-04T16:31:18.341Z,18.13
2022-12-04T16:33:45.055Z,15.63
2022-12-04T16:36:11.710Z,16.03
2022-12-04T16:38:38.349Z,16.07
2022-12-04T16:41:05.881Z,16.73
2022-12-04T16:43:32.649Z,16.80
2022-12-04T16:46:01.522Z,16.47
2022-12-04T16:48:29.638Z,16.97
2022-12-04T16:50:56.335Z,16.87
2022-12-04T16:53:23.349Z,16.30
2022-12-04T16:55:51.727Z,15.67
2022-12-04T16:58:20.389Z,17.17
2022-12-04T17:00:53.237Z,17.67
2022-12-04T17:03:32.867Z,17.17
2022-12-04T17:06:00.770Z,20.07
2022-12-04T17:08:28.393Z,17.57
2022-12-04T17:10:55.258Z,17.67
2022-12-04T17:13:22.621Z,18.23
2022-12-04T17:15:49.674Z,17.33
2022-12-04T17:18:21.127Z,17.03
2022-12-04T17:20:48.792Z,16.60
2022-12-04T17:23:16.010Z,16.43
2022-12-04T17:25:42.743Z,20.90
2022-12-04T17:28:09.767Z,18.27
2022-12-04T17:30:36.791Z,19.23
2022-12-04T17:33:04.836Z,16.57
2022-12-04T17:35:32.020Z,16.13
2022-12-04T17:38:04.065Z,18.40
2022-12-04T17:40:33.251Z,16.00
2022-12-04T17:43:00.148Z,16.33
2022-12-04T17:45:27.032Z,18.43
2022-12-04T17:47:53.658Z,17.87
2022-12-04T17:50:20.558Z,18.70
2022-12-04T17:52:47.278Z,20.67
2022-12-04T17:55:14.232Z,18.07
2022-12-04T17:57:41.038Z,17.53
2022-12-04T18:00:08.403Z,18.83
2022-12-04T18:02:35.907Z,18.27
2022-12-04T18:05:02.691Z,17.80
2022-12-04T18:07:30.922Z,19.47
2022-12-04T18:09:57.918Z,18.73
2022-12-04T18:12:24.937Z,20.00
2022-12-04T18:14:52.877Z,17.53
2022-12-04T18:17:20.872Z,18.10
2022-12-04T18:19:47.604Z,19.60
2022-12-04T18:22:14.345Z,18.50
2022-12-04T18:24:41.107Z,18.20
2022-12-04T18:27:08.312Z,18.83
2022-12-04T18:29:35.118Z,19.63
2022-12-04T18:32:01.927Z,20.07
2022-12-04T18:34:28.752Z,16.60
2022-12-04T18:36:55.476Z,17.57
2022-12-04T18:39:24.175Z,17.53
2022-12-04T18:41:51.193Z,17.93
2022-12-04T18:44:18.035Z,17.10
2022-12-04T18:46:44.759Z,16.13
2022-12-04T18:49:12.019Z,17.20
2022-12-04T18:51:48.954Z,18.97
2022-12-04T18:54:19.349Z,19.03
2022-12-04T18:56:46.586Z,18.63
2022-12-04T18:59:25.174Z,21.00
2022-12-04T19:01:53.401Z,18.83
2022-12-04T19:04:22.187Z,18.90
2022-12-04T19:06:54.967Z,17.93
2022-12-04T19:09:47.203Z,18.40
2022-12-04T19:12:12.907Z,15.80
2022-12-04T19:14:39.924Z,16.53
2022-12-04T19:17:06.970Z,16.07
2022-12-04T19:19:33.789Z,17.73
2022-12-04T19:22:01.222Z,16.90
2022-12-04T19:24:27.991Z,19.93
2022-12-04T19:26:55.058Z,21.83
2022-12-04T19:29:21.874Z,22.07
2022-12-04T19:31:48.641Z,20.37
2022-12-04T19:34:15.493Z,18.57
2022-12-04T19:36:42.654Z,19.57
2022-12-04T19:39:10.096Z,23.70
2022-12-04T19:41:41.500Z,23.23
2022-12-04T19:44:40.205Z,20.63
2022-12-04T19:46:56.748Z,21.20
2022-12-04T19:49:23.794Z,19.67
2022-12-04T19:51:50.609Z,22.03
2022-12-04T19:54:17.486Z,21.47
2022-12-04T19:56:49.045Z,20.13
2022-12-04T19:59:15.832Z,18.47
2022-12-04T20:01:42.794Z,18.80
2022-12-04T20:04:10.704Z,19.57
2022-12-04T20:06:40.891Z,20.67
2022-12-04T20:09:10.711Z,19.43
2022-12-04T20:11:40.133Z,20.47
2022-12-04T20:14:08.172Z,20.63
2022-12-04T20:16:35.752Z,19.80
2022-12-04T20:19:04.444Z,21.53
2022-12-04T20:21:32.511Z,21.40
2022-12-04T20:24:03.980Z,21.57
2022-12-04T20:26:34.338Z,18.20
2022-12-04T20:29:02.188Z,20.40
2022-12-04T20:31:30.457Z,21.60
2022-12-04T20:33:59.211Z,22.00
2022-12-04T20:36:28.251Z,21.67
2022-12-04T20:38:59.809Z,23.07
2022-12-04T20:41:28.809Z,20.90
2022-12-04T20:43:58.259Z,21.60
2022-12-04T20:46:25.070Z,20.70
2022-12-04T20:48:53.533Z,19.97
2022-12-04T20:51:24.725Z,19.73
2022-12-04T20:53:53.097Z,21.73
2022-12-04T20:56:21.866Z,21.87
2022-12-04T20:58:48.834Z,20.97
2022-12-04T21:01:18.389Z,20.80
2022-12-04T21:03:46.076Z,20.60
2022-12-04T21:06:15.880Z,19.83
2022-12-04T21:08:57.053Z,19.90
2022-12-04T21:11:29.165Z,20.53
2022-12-04T21:14:16.343Z,18.77
2022-12-04T21:16:43.384Z,19.73
2022-12-04T21:19:14.129Z,20.80
2022-12-04T21:21:41.243Z,19.73
2022-12-04T21:24:10.910Z,20.37
2022-12-04T21:26:37.948Z,20.43
2022-12-04T21:29:07.470Z,21.57
2022-12-04T21:31:35.879Z,17.60
2022-12-04T21:34:04.656Z,18.03
2022-12-04T21:36:31.648Z,18.93
2022-12-04T21:38:58.336Z,17.77
2022-12-04T21:41:43.963Z,18.33
2022-12-04T21:44:35.093Z,17.70
2022-12-04T21:47:01.973Z,17.17
2022-12-04T21:49:28.828Z,16.53
2022-12-04T21:51:58.148Z,17.03
2022-12-04T21:54:26.924Z,14.13
2022-12-04T21:56:54.329Z,14.37
2022-12-04T21:59:21.265Z,16.20
2022-12-04T22:01:48.018Z,16.13
2022-12-04T22:04:15.322Z,16.07
2022-12-04T22:06:42.386Z,15.57
2022-12-04T22:09:13.273Z,15.17
2022-12-04T22:11:41.577Z,15.43
2022-12-04T22:14:09.478Z,14.43
2022-12-04T22:16:41.620Z,14.80
2022-12-04T22:19:09.185Z,14.00
2022-12-04T22:21:35.914Z,14.47
2022-12-04T22:24:04.192Z,15.00
2022-12-04T22:26:31.395Z,13.73
2022-12-04T22:28:58.170Z,14.17
2022-12-04T22:31:27.004Z,13.97
2022-12-04T22:33:56.312Z,16.27
2022-12-04T22:36:28.219Z,16.17
2022-12-04T22:39:11.243Z,12.20
2022-12-04T22:41:38.557Z,13.53
2022-12-04T22:44:05.791Z,13.00
2022-12-04T22:46:33.124Z,11.97
2022-12-04T22:49:00.377Z,12.20
2022-12-04T22:51:28.146Z,12.07
2022-12-04T22:53:56.979Z,11.23
2022-12-04T22:56:23.757Z,12.00
2022-12-04T22:58:51.550Z,12.97
2022-12-04T23:01:23.723Z,11.87
2022-12-04T23:03:51.290Z,12.10
2022-12-04T23:06:20.091Z,11.20
2022-12-04T23:08:47.457Z,10.93
2022-12-04T23:11:21.809Z,11.43
2022-12-04T23:14:00.472Z,11.83
2022-12-04T23:16:29.240Z,11.10
2022-12-04T23:18:56.348Z,10.77
2022-12-04T23:21:24.191Z,10.77
2022-12-04T23:23:52.733Z,10.30
2022-12-04T23:26:25.250Z,9.90
2022-12-04T23:28:52.232Z,10.50
2022-12-04T23:31:19.544Z,9.97
2022-12-04T23:33:46.626Z,9.63
2022-12-04T23:36:14.224Z,12.30
2022-12-04T23:38:42.836Z,11.07
2022-12-04T23:41:15.148Z,11.77
2022-12-04T23:43:43.065Z,11.77
2022-12-04T23:46:11.759Z,12.27
2022-12-04T23:48:39.992Z,12.20
2022-12-04T23:51:07.962Z,11.27
2022-12-04T23:53:34.815Z,11.80
2022-12-04T23:56:16.516Z,13.10
2022-12-04T23:58:44.468Z,13.57
